sensor_id;sensor_type;location;lat;lon;timestamp;temperature;humidity
41294;DHT22;27037;52.010;4.446;2022-12-20T00:00:49;9.90;99.90
41294;DHT22;27037;52.010;4.446;2022-12-20T00:03:15;9.90;99.90
41294;DHT22;27037;52.010;4.446;2022-12-20T00:05:41;9.90;99.90
41294;DHT22;27037;52.010;4.446;2022-12-20T00:08:07;9.90;99.90
41294;DHT22;27037;52.010;4.446;2022-12-20T00:10:41;9.90;99.90
41294;DHT22;27037;52.010;4.446;2022-12-20T00:13:08;9.90;99.90
41294;DHT22;27037;52.010;4.446;2022-12-20T00:15:34;9.90;99.90
41294;DHT22;27037;52.010;4.446;2022-12-20T00:17:59;10.00;99.90
41294;DHT22;27037;52.010;4.446;2022-12-20T00:20:27;9.90;99.90
41294;DHT22;27037;52.010;4.446;2022-12-20T00:22:52;9.90;99.90
41294;DHT22;27037;52.010;4.446;2022-12-20T00:25:19;10.00;99.90
41294;DHT22;27037;52.010;4.446;2022-12-20T00:27:46;9.90;99.90
41294;DHT22;27037;52.010;4.446;2022-12-20T00:30:12;9.90;99.90
41294;DHT22;27037;52.010;4.446;2022-12-20T00:32:38;9.90;99.90
41294;DHT22;27037;52.010;4.446;2022-12-20T00:35:04;9.90;99.90
41294;DHT22;27037;52.010;4.446;2022-12-20T00:37:29;9.90;99.90
41294;DHT22;27037;52.010;4.446;2022-12-20T00:39:55;9.90;99.90
41294;DHT22;27037;52.010;4.446;2022-12-20T00:42:21;10.00;99.90
41294;DHT22;27037;52.010;4.446;2022-12-20T00:44:46;10.00;99.90
41294;DHT22;27037;52.010;4.446;2022-12-20T00:47:12;10.00;99.90
41294;DHT22;27037;52.010;4.446;2022-12-20T00:49:37;10.00;99.90
41294;DHT22;27037;52.010;4.446;2022-12-20T00:52:03;9.90;99.90
41294;DHT22;27037;52.010;4.446;2022-12-20T00:54:29;9.90;99.90
41294;DHT22;27037;52.010;4.446;2022-12-20T00:56:54;9.90;99.90
41294;DHT22;27037;52.010;4.446;2022-12-20T00:59:20;9.90;99.90
41294;DHT22;27037;52.010;4.446;2022-12-20T01:01:46;9.90;99.90
41294;DHT22;27037;52.010;4.446;2022-12-20T01:04:12;9.90;99.90
41294;DHT22;27037;52.010;4.446;2022-12-20T01:06:38;9.90;99.90
41294;DHT22;27037;52.010;4.446;2022-12-20T01:09:04;9.90;99.90
41294;DHT22;27037;52.010;4.446;2022-12-20T01:11:32;9.90;99.90
41294;DHT22;27037;52.010;4.446;2022-12-20T01:14:00;9.90;99.90
41294;DHT22;27037;52.010;4.446;2022-12-20T01:16:29;9.90;99.90
41294;DHT22;27037;52.010;4.446;2022-12-20T01:18:55;9.90;99.90
41294;DHT22;27037;52.010;4.446;2022-12-20T01:21:23;9.90;99.90
41294;DHT22;27037;52.010;4.446;2022-12-20T01:23:49;9.90;99.90
41294;DHT22;27037;52.010;4.446;2022-12-20T01:26:18;9.90;99.90
41294;DHT22;27037;52.010;4.446;2022-12-20T01:28:46;9.90;99.90
41294;DHT22;27037;52.010;4.446;2022-12-20T01:31:16;10.00;99.90
41294;DHT22;27037;52.010;4.446;2022-12-20T01:33:43;10.00;99.90
41294;DHT22;27037;52.010;4.446;2022-12-20T01:36:16;10.00;99.90
41294;DHT22;27037;52.010;4.446;2022-12-20T01:38:43;10.00;99.90
41294;DHT22;27037;52.010;4.446;2022-12-20T01:41:13;10.10;99.90
41294;DHT22;27037;52.010;4.446;2022-12-20T01:46:40;10.10;99.90
41294;DHT22;27037;52.010;4.446;2022-12-20T01:49:16;10.20;99.90
41294;DHT22;27037;52.010;4.446;2022-12-20T01:51:49;10.20;99.90
41294;DHT22;27037;52.010;4.446;2022-12-20T01:54:17;10.10;99.90
41294;DHT22;27037;52.010;4.446;2022-12-20T01:56:47;10.10;99.90
41294;DHT22;27037;52.010;4.446;2022-12-20T01:59:14;10.10;99.90
41294;DHT22;27037;52.010;4.446;2022-12-20T02:01:41;10.10;99.90
41294;DHT22;27037;52.010;4.446;2022-12-20T02:04:07;10.10;99.90
41294;DHT22;27037;52.010;4.446;2022-12-20T02:06:34;10.10;99.90
41294;DHT22;27037;52.010;4.446;2022-12-20T02:09:02;10.10;99.90
41294;DHT22;27037;52.010;4.446;2022-12-20T02:22:25;10.00;99.90
41294;DHT22;27037;52.010;4.446;2022-12-20T02:25:15;10.00;99.90
41294;DHT22;27037;52.010;4.446;2022-12-20T02:27:53;10.00;99.90
41294;DHT22;27037;52.010;4.446;2022-12-20T02:30:27;10.00;99.90
41294;DHT22;27037;52.010;4.446;2022-12-20T02:33:03;9.90;99.90
41294;DHT22;27037;52.010;4.446;2022-12-20T02:35:32;9.90;99.90
41294;DHT22;27037;52.010;4.446;2022-12-20T02:38:01;9.90;99.90
41294;DHT22;27037;52.010;4.446;2022-12-20T02:40:31;9.90;99.90
41294;DHT22;27037;52.010;4.446;2022-12-20T02:43:01;9.90;99.90
41294;DHT22;27037;52.010;4.446;2022-12-20T02:45:32;9.90;99.90
41294;DHT22;27037;52.010;4.446;2022-12-20T02:48:09;10.00;99.90
41294;DHT22;27037;52.010;4.446;2022-12-20T02:50:44;10.00;99.90
41294;DHT22;27037;52.010;4.446;2022-12-20T02:53:11;10.00;99.90
41294;DHT22;27037;52.010;4.446;2022-12-20T02:58:14;10.00;99.90
41294;DHT22;27037;52.010;4.446;2022-12-20T03:00:44;10.10;99.90
41294;DHT22;27037;52.010;4.446;2022-12-20T03:03:11;10.10;99.90
41294;DHT22;27037;52.010;4.446;2022-12-20T03:05:54;10.10;99.90
41294;DHT22;27037;52.010;4.446;2022-12-20T03:08:21;10.10;99.90
41294;DHT22;27037;52.010;4.446;2022-12-20T03:10:48;10.10;99.90
41294;DHT22;27037;52.010;4.446;2022-12-20T03:13:14;10.20;99.90
41294;DHT22;27037;52.010;4.446;2022-12-20T03:15:39;10.20;99.90
41294;DHT22;27037;52.010;4.446;2022-12-20T03:18:06;10.30;99.90
41294;DHT22;27037;52.010;4.446;2022-12-20T03:20:32;10.30;99.90
41294;DHT22;27037;52.010;4.446;2022-12-20T03:22:57;10.30;99.90
41294;DHT22;27037;52.010;4.446;2022-12-20T03:25:23;10.30;99.90
41294;DHT22;27037;52.010;4.446;2022-12-20T03:27:49;10.30;99.90
41294;DHT22;27037;52.010;4.446;2022-12-20T03:30:15;10.40;99.90
41294;DHT22;27037;52.010;4.446;2022-12-20T03:32:41;10.40;99.90
41294;DHT22;27037;52.010;4.446;2022-12-20T03:35:07;10.40;99.90
41294;DHT22;27037;52.010;4.446;2022-12-20T03:37:32;10.40;99.90
41294;DHT22;27037;52.010;4.446;2022-12-20T03:39:58;10.50;99.90
41294;DHT22;27037;52.010;4.446;2022-12-20T03:42:24;10.50;99.90
41294;DHT22;27037;52.010;4.446;2022-12-20T03:44:49;10.50;99.90
41294;DHT22;27037;52.010;4.446;2022-12-20T03:47:15;10.50;99.90
41294;DHT22;27037;52.010;4.446;2022-12-20T03:49:41;10.50;99.90
41294;DHT22;27037;52.010;4.446;2022-12-20T03:52:06;10.60;99.90
41294;DHT22;27037;52.010;4.446;2022-12-20T03:54:32;10.60;99.90
41294;DHT22;27037;52.010;4.446;2022-12-20T03:56:58;10.60;99.90
41294;DHT22;27037;52.010;4.446;2022-12-20T03:59:24;10.60;99.90
41294;DHT22;27037;52.010;4.446;2022-12-20T04:01:49;10.60;99.90
41294;DHT22;27037;52.010;4.446;2022-12-20T04:04:15;10.60;99.90
41294;DHT22;27037;52.010;4.446;2022-12-20T04:06:41;10.60;99.90
41294;DHT22;27037;52.010;4.446;2022-12-20T04:09:06;10.60;99.90
41294;DHT22;27037;52.010;4.446;2022-12-20T04:11:32;10.60;99.90
41294;DHT22;27037;52.010;4.446;2022-12-20T04:13:58;10.60;99.90
41294;DHT22;27037;52.010;4.446;2022-12-20T04:16:26;10.60;99.90
41294;DHT22;27037;52.010;4.446;2022-12-20T04:18:53;10.60;99.90
41294;DHT22;27037;52.010;4.446;2022-12-20T04:21:23;10.50;99.90
41294;DHT22;27037;52.010;4.446;2022-12-20T04:23:49;10.50;99.90
41294;DHT22;27037;52.010;4.446;2022-12-20T04:26:15;10.50;99.90
41294;DHT22;27037;52.010;4.446;2022-12-20T04:28:41;10.50;99.90
41294;DHT22;27037;52.010;4.446;2022-12-20T04:31:10;10.50;99.90
41294;DHT22;27037;52.010;4.446;2022-12-20T04:33:36;10.50;99.90
41294;DHT22;27037;52.010;4.446;2022-12-20T04:36:02;10.50;99.90
41294;DHT22;27037;52.010;4.446;2022-12-20T04:38:27;10.40;99.90
41294;DHT22;27037;52.010;4.446;2022-12-20T04:40:54;10.40;99.90
41294;DHT22;27037;52.010;4.446;2022-12-20T04:43:21;10.40;99.90
41294;DHT22;27037;52.010;4.446;2022-12-20T04:45:48;10.40;99.90
41294;DHT22;27037;52.010;4.446;2022-12-20T04:48:15;10.40;99.90
41294;DHT22;27037;52.010;4.446;2022-12-20T04:50:41;10.40;99.90
41294;DHT22;27037;52.010;4.446;2022-12-20T04:53:09;10.30;99.90
41294;DHT22;27037;52.010;4.446;2022-12-20T04:55:54;10.30;99.90
41294;DHT22;27037;52.010;4.446;2022-12-20T04:58:20;10.30;99.90
41294;DHT22;27037;52.010;4.446;2022-12-20T05:00:45;10.30;99.90
41294;DHT22;27037;52.010;4.446;2022-12-20T05:03:11;10.30;99.90
41294;DHT22;27037;52.010;4.446;2022-12-20T05:05:37;10.40;99.90
41294;DHT22;27037;52.010;4.446;2022-12-20T05:08:03;10.40;99.90
41294;DHT22;27037;52.010;4.446;2022-12-20T05:10:29;10.40;99.90
41294;DHT22;27037;52.010;4.446;2022-12-20T05:12:54;10.40;99.90
41294;DHT22;27037;52.010;4.446;2022-12-20T05:15:20;10.40;99.90
41294;DHT22;27037;52.010;4.446;2022-12-20T05:17:46;10.40;99.90
41294;DHT22;27037;52.010;4.446;2022-12-20T05:20:12;10.40;99.90
41294;DHT22;27037;52.010;4.446;2022-12-20T05:22:37;10.40;99.90
41294;DHT22;27037;52.010;4.446;2022-12-20T05:25:22;10.40;99.90
41294;DHT22;27037;52.010;4.446;2022-12-20T05:28:06;10.40;99.90
41294;DHT22;27037;52.010;4.446;2022-12-20T05:30:31;10.50;99.90
41294;DHT22;27037;52.010;4.446;2022-12-20T05:32:57;10.40;99.90
41294;DHT22;27037;52.010;4.446;2022-12-20T05:35:23;10.50;99.90
41294;DHT22;27037;52.010;4.446;2022-12-20T05:37:48;10.40;99.90
41294;DHT22;27037;52.010;4.446;2022-12-20T05:40:14;10.50;99.90
41294;DHT22;27037;52.010;4.446;2022-12-20T05:42:40;10.50;99.90
41294;DHT22;27037;52.010;4.446;2022-12-20T05:45:06;10.50;99.90
41294;DHT22;27037;52.010;4.446;2022-12-20T05:47:32;10.50;99.90
41294;DHT22;27037;52.010;4.446;2022-12-20T05:49:59;10.50;99.90
41294;DHT22;27037;52.010;4.446;2022-12-20T05:52:25;10.50;99.90
41294;DHT22;27037;52.010;4.446;2022-12-20T05:54:50;10.50;99.90
41294;DHT22;27037;52.010;4.446;2022-12-20T05:57:16;10.60;99.90
41294;DHT22;27037;52.010;4.446;2022-12-20T05:59:42;10.60;99.90
41294;DHT22;27037;52.010;4.446;2022-12-20T06:02:11;10.60;99.90
41294;DHT22;27037;52.010;4.446;2022-12-20T06:04:37;10.60;99.90
41294;DHT22;27037;52.010;4.446;2022-12-20T06:07:03;10.70;99.90
41294;DHT22;27037;52.010;4.446;2022-12-20T06:09:30;10.80;99.90
41294;DHT22;27037;52.010;4.446;2022-12-20T06:11:56;10.80;99.90
41294;DHT22;27037;52.010;4.446;2022-12-20T06:14:22;10.80;99.90
41294;DHT22;27037;52.010;4.446;2022-12-20T06:16:47;10.80;99.90
41294;DHT22;27037;52.010;4.446;2022-12-20T06:19:13;10.90;99.90
41294;DHT22;27037;52.010;4.446;2022-12-20T06:21:39;10.90;99.90
41294;DHT22;27037;52.010;4.446;2022-12-20T06:24:05;10.90;99.90
41294;DHT22;27037;52.010;4.446;2022-12-20T06:26:31;10.90;99.90
41294;DHT22;27037;52.010;4.446;2022-12-20T06:29:05;10.90;99.90
41294;DHT22;27037;52.010;4.446;2022-12-20T06:31:34;10.90;99.90
41294;DHT22;27037;52.010;4.446;2022-12-20T06:34:00;10.90;99.90
41294;DHT22;27037;52.010;4.446;2022-12-20T06:36:28;10.90;99.90
41294;DHT22;27037;52.010;4.446;2022-12-20T06:38:54;10.90;99.90
41294;DHT22;27037;52.010;4.446;2022-12-20T06:41:20;11.00;99.90
41294;DHT22;27037;52.010;4.446;2022-12-20T06:43:46;10.90;99.90
41294;DHT22;27037;52.010;4.446;2022-12-20T06:46:12;10.90;99.90
41294;DHT22;27037;52.010;4.446;2022-12-20T06:48:38;10.90;99.90
41294;DHT22;27037;52.010;4.446;2022-12-20T06:51:04;10.90;99.90
41294;DHT22;27037;52.010;4.446;2022-12-20T06:53:29;10.90;99.90
41294;DHT22;27037;52.010;4.446;2022-12-20T06:55:55;10.90;99.90
41294;DHT22;27037;52.010;4.446;2022-12-20T06:58:21;10.90;99.90
41294;DHT22;27037;52.010;4.446;2022-12-20T07:00:47;11.00;99.90
41294;DHT22;27037;52.010;4.446;2022-12-20T07:03:13;11.00;99.90
41294;DHT22;27037;52.010;4.446;2022-12-20T07:05:39;11.00;99.90
41294;DHT22;27037;52.010;4.446;2022-12-20T07:08:06;11.00;99.90
41294;DHT22;27037;52.010;4.446;2022-12-20T07:10:35;11.10;99.90
41294;DHT22;27037;52.010;4.446;2022-12-20T07:13:01;11.10;99.90
41294;DHT22;27037;52.010;4.446;2022-12-20T07:15:27;11.10;99.90
41294;DHT22;27037;52.010;4.446;2022-12-20T07:17:53;11.10;99.90
41294;DHT22;27037;52.010;4.446;2022-12-20T07:20:18;11.10;99.90
41294;DHT22;27037;52.010;4.446;2022-12-20T07:22:47;11.10;99.90
41294;DHT22;27037;52.010;4.446;2022-12-20T07:25:13;11.10;99.90
41294;DHT22;27037;52.010;4.446;2022-12-20T07:27:38;11.10;99.90
41294;DHT22;27037;52.010;4.446;2022-12-20T07:30:05;11.10;99.90
41294;DHT22;27037;52.010;4.446;2022-12-20T07:32:31;11.10;99.90
41294;DHT22;27037;52.010;4.446;2022-12-20T07:34:56;11.00;99.90
41294;DHT22;27037;52.010;4.446;2022-12-20T07:37:22;11.00;99.90
41294;DHT22;27037;52.010;4.446;2022-12-20T07:39:48;11.00;99.90
41294;DHT22;27037;52.010;4.446;2022-12-20T07:42:14;10.90;99.90
41294;DHT22;27037;52.010;4.446;2022-12-20T07:44:39;10.90;99.90
41294;DHT22;27037;52.010;4.446;2022-12-20T07:47:05;10.80;99.90
41294;DHT22;27037;52.010;4.446;2022-12-20T07:49:31;10.80;99.90
41294;DHT22;27037;52.010;4.446;2022-12-20T07:51:58;10.80;99.90
41294;DHT22;27037;52.010;4.446;2022-12-20T07:54:36;10.80;99.90
41294;DHT22;27037;52.010;4.446;2022-12-20T07:57:10;10.80;99.90
41294;DHT22;27037;52.010;4.446;2022-12-20T07:59:41;10.80;99.90
41294;DHT22;27037;52.010;4.446;2022-12-20T08:02:31;10.70;99.90
41294;DHT22;27037;52.010;4.446;2022-12-20T08:05:00;10.70;99.90
41294;DHT22;27037;52.010;4.446;2022-12-20T08:07:28;10.60;99.90
41294;DHT22;27037;52.010;4.446;2022-12-20T08:09:54;10.60;99.90
41294;DHT22;27037;52.010;4.446;2022-12-20T08:12:20;10.60;99.90
41294;DHT22;27037;52.010;4.446;2022-12-20T08:14:46;10.50;99.90
41294;DHT22;27037;52.010;4.446;2022-12-20T08:17:12;10.50;99.90
41294;DHT22;27037;52.010;4.446;2022-12-20T08:19:38;10.50;99.90
41294;DHT22;27037;52.010;4.446;2022-12-20T08:22:04;10.50;99.90
41294;DHT22;27037;52.010;4.446;2022-12-20T08:24:31;10.50;99.90
41294;DHT22;27037;52.010;4.446;2022-12-20T08:26:57;10.50;99.90
41294;DHT22;27037;52.010;4.446;2022-12-20T08:29:23;10.50;99.90
41294;DHT22;27037;52.010;4.446;2022-12-20T08:31:48;10.50;99.90
41294;DHT22;27037;52.010;4.446;2022-12-20T08:34:14;10.50;99.90
41294;DHT22;27037;52.010;4.446;2022-12-20T08:36:40;10.50;99.90
41294;DHT22;27037;52.010;4.446;2022-12-20T08:39:06;10.50;99.90
41294;DHT22;27037;52.010;4.446;2022-12-20T08:41:33;10.50;99.90
41294;DHT22;27037;52.010;4.446;2022-12-20T08:44:01;10.50;99.90
41294;DHT22;27037;52.010;4.446;2022-12-20T08:46:26;10.50;99.90
41294;DHT22;27037;52.010;4.446;2022-12-20T08:48:52;10.50;99.90
41294;DHT22;27037;52.010;4.446;2022-12-20T08:51:18;10.50;99.90
41294;DHT22;27037;52.010;4.446;2022-12-20T08:53:43;10.50;99.90
41294;DHT22;27037;52.010;4.446;2022-12-20T08:56:16;10.50;99.90
41294;DHT22;27037;52.010;4.446;2022-12-20T08:58:43;10.50;99.90
41294;DHT22;27037;52.010;4.446;2022-12-20T09:01:11;10.50;99.90
41294;DHT22;27037;52.010;4.446;2022-12-20T09:03:38;10.50;99.90
41294;DHT22;27037;52.010;4.446;2022-12-20T09:06:12;10.50;99.90
41294;DHT22;27037;52.010;4.446;2022-12-20T09:08:39;10.50;99.90
41294;DHT22;27037;52.010;4.446;2022-12-20T09:11:21;10.50;99.90
41294;DHT22;27037;52.010;4.446;2022-12-20T09:13:48;10.50;99.90
41294;DHT22;27037;52.010;4.446;2022-12-20T09:16:16;10.40;99.90
41294;DHT22;27037;52.010;4.446;2022-12-20T09:18:43;10.50;99.90
41294;DHT22;27037;52.010;4.446;2022-12-20T09:21:09;10.50;99.90
41294;DHT22;27037;52.010;4.446;2022-12-20T09:23:36;10.40;99.90
41294;DHT22;27037;52.010;4.446;2022-12-20T09:26:04;10.40;99.90
41294;DHT22;27037;52.010;4.446;2022-12-20T09:28:31;10.40;99.90
41294;DHT22;27037;52.010;4.446;2022-12-20T09:31:00;10.40;99.90
41294;DHT22;27037;52.010;4.446;2022-12-20T09:33:26;10.40;99.90
41294;DHT22;27037;52.010;4.446;2022-12-20T09:35:53;10.40;99.90
41294;DHT22;27037;52.010;4.446;2022-12-20T09:38:19;10.40;99.90
41294;DHT22;27037;52.010;4.446;2022-12-20T09:40:50;10.40;99.90
41294;DHT22;27037;52.010;4.446;2022-12-20T09:43:18;10.40;99.90
41294;DHT22;27037;52.010;4.446;2022-12-20T09:45:46;10.40;99.90
41294;DHT22;27037;52.010;4.446;2022-12-20T09:48:21;10.40;99.90
41294;DHT22;27037;52.010;4.446;2022-12-20T09:53:29;10.40;99.90
41294;DHT22;27037;52.010;4.446;2022-12-20T09:56:02;10.40;99.90
41294;DHT22;27037;52.010;4.446;2022-12-20T10:01:27;10.40;99.90
41294;DHT22;27037;52.010;4.446;2022-12-20T10:03:55;10.40;99.90
41294;DHT22;27037;52.010;4.446;2022-12-20T10:09:05;10.30;99.90
41294;DHT22;27037;52.010;4.446;2022-12-20T10:22:48;10.30;99.90
41294;DHT22;27037;52.010;4.446;2022-12-20T10:25:20;10.30;99.90
41294;DHT22;27037;52.010;4.446;2022-12-20T10:27:52;10.30;99.90
41294;DHT22;27037;52.010;4.446;2022-12-20T10:30:24;10.40;99.90
41294;DHT22;27037;52.010;4.446;2022-12-20T10:32:54;10.30;99.90
41294;DHT22;27037;52.010;4.446;2022-12-20T10:35:29;10.40;99.90
41294;DHT22;27037;52.010;4.446;2022-12-20T10:38:02;10.40;99.90
41294;DHT22;27037;52.010;4.446;2022-12-20T10:40:35;10.40;99.90
41294;DHT22;27037;52.010;4.446;2022-12-20T10:43:02;10.40;99.90
41294;DHT22;27037;52.010;4.446;2022-12-20T10:45:35;10.30;99.90
41294;DHT22;27037;52.010;4.446;2022-12-20T10:48:05;10.30;99.90
41294;DHT22;27037;52.010;4.446;2022-12-20T10:50:30;10.30;99.90
41294;DHT22;27037;52.010;4.446;2022-12-20T10:55:39;10.40;99.90
41294;DHT22;27037;52.010;4.446;2022-12-20T11:00:38;10.40;99.90
41294;DHT22;27037;52.010;4.446;2022-12-20T11:03:21;10.50;99.90
41294;DHT22;27037;52.010;4.446;2022-12-20T11:05:59;10.40;99.90
41294;DHT22;27037;52.010;4.446;2022-12-20T11:08:27;10.50;99.90
41294;DHT22;27037;52.010;4.446;2022-12-20T11:11:29;10.50;99.90
41294;DHT22;27037;52.010;4.446;2022-12-20T11:14:13;10.50;99.90
41294;DHT22;27037;52.010;4.446;2022-12-20T11:16:39;10.50;99.90
41294;DHT22;27037;52.010;4.446;2022-12-20T11:24:57;10.60;99.90
41294;DHT22;27037;52.010;4.446;2022-12-20T11:27:48;10.60;99.90
41294;DHT22;27037;52.010;4.446;2022-12-20T11:30:22;10.60;99.90
41294;DHT22;27037;52.010;4.446;2022-12-20T11:41:39;10.60;99.90
41294;DHT22;27037;52.010;4.446;2022-12-20T11:49:54;10.60;99.90
41294;DHT22;27037;52.010;4.446;2022-12-20T11:52:53;10.70;99.90
41294;DHT22;27037;52.010;4.446;2022-12-20T11:55:33;10.70;99.90
41294;DHT22;27037;52.010;4.446;2022-12-20T12:00:37;10.70;99.90
41294;DHT22;27037;52.010;4.446;2022-12-20T12:06:20;10.70;99.90
41294;DHT22;27037;52.010;4.446;2022-12-20T12:11:48;10.70;99.90
41294;DHT22;27037;52.010;4.446;2022-12-20T12:17:07;10.70;99.90
41294;DHT22;27037;52.010;4.446;2022-12-20T12:19:36;10.70;99.90
41294;DHT22;27037;52.010;4.446;2022-12-20T12:22:10;10.70;99.90
41294;DHT22;27037;52.010;4.446;2022-12-20T12:24:42;10.80;99.90
41294;DHT22;27037;52.010;4.446;2022-12-20T12:27:22;10.70;99.90
41294;DHT22;27037;52.010;4.446;2022-12-20T12:29:48;10.80;99.90
41294;DHT22;27037;52.010;4.446;2022-12-20T12:40:57;10.80;99.90
41294;DHT22;27037;52.010;4.446;2022-12-20T12:46:10;10.70;99.90
41294;DHT22;27037;52.010;4.446;2022-12-20T12:51:35;10.70;99.90
41294;DHT22;27037;52.010;4.446;2022-12-20T12:54:29;10.70;99.90
41294;DHT22;27037;52.010;4.446;2022-12-20T12:57:01;10.70;99.90
41294;DHT22;27037;52.010;4.446;2022-12-20T13:20:33;10.70;99.90
41294;DHT22;27037;52.010;4.446;2022-12-20T13:33:46;10.70;99.90
41294;DHT22;27037;52.010;4.446;2022-12-20T13:41:33;10.70;99.90
41294;DHT22;27037;52.010;4.446;2022-12-20T13:44:17;10.70;99.90
41294;DHT22;27037;52.010;4.446;2022-12-20T13:46:53;10.60;99.90
41294;DHT22;27037;52.010;4.446;2022-12-20T13:49:26;10.60;99.90
41294;DHT22;27037;52.010;4.446;2022-12-20T13:52:29;10.60;99.90
41294;DHT22;27037;52.010;4.446;2022-12-20T13:55:01;10.60;99.90
41294;DHT22;27037;52.010;4.446;2022-12-20T13:57:40;10.60;99.90
41294;DHT22;27037;52.010;4.446;2022-12-20T14:00:18;10.60;99.90
41294;DHT22;27037;52.010;4.446;2022-12-20T14:02:46;10.60;99.90
41294;DHT22;27037;52.010;4.446;2022-12-20T14:07:41;10.60;99.90
41294;DHT22;27037;52.010;4.446;2022-12-20T14:10:23;10.60;99.90
41294;DHT22;27037;52.010;4.446;2022-12-20T14:12:50;10.60;99.90
41294;DHT22;27037;52.010;4.446;2022-12-20T14:17:51;10.60;99.90
41294;DHT22;27037;52.010;4.446;2022-12-20T14:20:23;10.60;99.90
41294;DHT22;27037;52.010;4.446;2022-12-20T14:23:05;10.70;99.90
41294;DHT22;27037;52.010;4.446;2022-12-20T14:25:56;10.70;99.90
41294;DHT22;27037;52.010;4.446;2022-12-20T14:30:58;10.70;99.90
41294;DHT22;27037;52.010;4.446;2022-12-20T14:33:34;10.70;99.90
41294;DHT22;27037;52.010;4.446;2022-12-20T14:36:27;10.70;99.90
41294;DHT22;27037;52.010;4.446;2022-12-20T14:38:55;10.70;99.90
41294;DHT22;27037;52.010;4.446;2022-12-20T14:41:42;10.70;99.90
41294;DHT22;27037;52.010;4.446;2022-12-20T14:44:21;10.70;99.90
41294;DHT22;27037;52.010;4.446;2022-12-20T14:46:49;10.70;99.90
41294;DHT22;27037;52.010;4.446;2022-12-20T14:49:32;10.60;99.90
41294;DHT22;27037;52.010;4.446;2022-12-20T14:54:31;10.70;99.90
41294;DHT22;27037;52.010;4.446;2022-12-20T14:56:57;10.70;99.90
41294;DHT22;27037;52.010;4.446;2022-12-20T14:59:28;10.70;99.90
41294;DHT22;27037;52.010;4.446;2022-12-20T15:01:54;10.70;99.90
41294;DHT22;27037;52.010;4.446;2022-12-20T15:06:48;10.60;99.90
41294;DHT22;27037;52.010;4.446;2022-12-20T15:09:15;10.60;99.90
41294;DHT22;27037;52.010;4.446;2022-12-20T15:11:42;10.60;99.90
41294;DHT22;27037;52.010;4.446;2022-12-20T15:14:33;10.60;99.90
41294;DHT22;27037;52.010;4.446;2022-12-20T15:17:02;10.60;99.90
41294;DHT22;27037;52.010;4.446;2022-12-20T15:19:29;10.60;99.90
41294;DHT22;27037;52.010;4.446;2022-12-20T15:21:56;10.60;99.90
41294;DHT22;27037;52.010;4.446;2022-12-20T15:24:26;10.60;99.90
41294;DHT22;27037;52.010;4.446;2022-12-20T15:26:52;10.60;99.90
41294;DHT22;27037;52.010;4.446;2022-12-20T15:29:26;10.60;99.90
41294;DHT22;27037;52.010;4.446;2022-12-20T15:32:15;10.60;99.90
41294;DHT22;27037;52.010;4.446;2022-12-20T15:34:42;10.60;99.90
41294;DHT22;27037;52.010;4.446;2022-12-20T15:37:13;10.50;99.90
41294;DHT22;27037;52.010;4.446;2022-12-20T15:39:39;10.50;99.90
41294;DHT22;27037;52.010;4.446;2022-12-20T15:42:05;10.50;99.90
41294;DHT22;27037;52.010;4.446;2022-12-20T15:44:32;10.50;99.90
41294;DHT22;27037;52.010;4.446;2022-12-20T15:47:00;10.50;99.90
41294;DHT22;27037;52.010;4.446;2022-12-20T15:49:31;10.50;99.90
41294;DHT22;27037;52.010;4.446;2022-12-20T15:51:57;10.50;99.90
41294;DHT22;27037;52.010;4.446;2022-12-20T15:54:24;10.50;99.90
41294;DHT22;27037;52.010;4.446;2022-12-20T15:57:02;10.50;99.90
41294;DHT22;27037;52.010;4.446;2022-12-20T15:59:29;10.50;99.90
41294;DHT22;27037;52.010;4.446;2022-12-20T16:01:54;10.50;99.90
41294;DHT22;27037;52.010;4.446;2022-12-20T16:04:21;10.50;99.90
41294;DHT22;27037;52.010;4.446;2022-12-20T16:06:49;10.50;99.90
41294;DHT22;27037;52.010;4.446;2022-12-20T16:09:15;10.40;99.90
41294;DHT22;27037;52.010;4.446;2022-12-20T16:11:42;10.50;99.90
41294;DHT22;27037;52.010;4.446;2022-12-20T16:14:14;10.40;99.90
41294;DHT22;27037;52.010;4.446;2022-12-20T16:16:40;10.40;99.90
41294;DHT22;27037;52.010;4.446;2022-12-20T16:19:06;10.40;99.90
41294;DHT22;27037;52.010;4.446;2022-12-20T16:21:42;10.40;99.90
41294;DHT22;27037;52.010;4.446;2022-12-20T16:24:12;10.40;99.90
41294;DHT22;27037;52.010;4.446;2022-12-20T16:26:39;10.40;99.90
41294;DHT22;27037;52.010;4.446;2022-12-20T16:29:05;10.40;99.90
41294;DHT22;27037;52.010;4.446;2022-12-20T16:31:38;10.40;99.90
41294;DHT22;27037;52.010;4.446;2022-12-20T16:34:09;10.40;99.90
41294;DHT22;27037;52.010;4.446;2022-12-20T16:36:36;10.40;99.90
41294;DHT22;27037;52.010;4.446;2022-12-20T16:39:03;10.40;99.90
41294;DHT22;27037;52.010;4.446;2022-12-20T16:41:34;10.40;99.90
41294;DHT22;27037;52.010;4.446;2022-12-20T16:44:02;10.40;99.90
41294;DHT22;27037;52.010;4.446;2022-12-20T16:46:30;10.40;99.90
41294;DHT22;27037;52.010;4.446;2022-12-20T16:48:57;10.30;99.90
41294;DHT22;27037;52.010;4.446;2022-12-20T16:51:24;10.30;99.90
41294;DHT22;27037;52.010;4.446;2022-12-20T16:54:11;10.30;99.90
41294;DHT22;27037;52.010;4.446;2022-12-20T16:56:37;10.30;99.90
41294;DHT22;27037;52.010;4.446;2022-12-20T16:59:02;10.30;99.90
41294;DHT22;27037;52.010;4.446;2022-12-20T17:01:37;10.30;99.90
41294;DHT22;27037;52.010;4.446;2022-12-20T17:04:03;10.30;99.90
41294;DHT22;27037;52.010;4.446;2022-12-20T17:06:29;10.30;99.90
41294;DHT22;27037;52.010;4.446;2022-12-20T17:08:55;10.30;99.90
41294;DHT22;27037;52.010;4.446;2022-12-20T17:11:24;10.30;99.90
41294;DHT22;27037;52.010;4.446;2022-12-20T17:13:59;10.30;99.90
41294;DHT22;27037;52.010;4.446;2022-12-20T17:16:26;10.30;99.90
41294;DHT22;27037;52.010;4.446;2022-12-20T17:18:54;10.30;99.90
41294;DHT22;27037;52.010;4.446;2022-12-20T17:21:39;10.40;99.90
41294;DHT22;27037;52.010;4.446;2022-12-20T17:24:11;10.50;99.90
41294;DHT22;27037;52.010;4.446;2022-12-20T17:26:39;10.50;99.90
41294;DHT22;27037;52.010;4.446;2022-12-20T17:29:05;10.40;99.90
41294;DHT22;27037;52.010;4.446;2022-12-20T17:31:33;10.40;99.90
41294;DHT22;27037;52.010;4.446;2022-12-20T17:36:40;10.30;99.90
41294;DHT22;27037;52.010;4.446;2022-12-20T17:39:08;10.30;99.90
41294;DHT22;27037;52.010;4.446;2022-12-20T17:41:34;10.30;99.90
41294;DHT22;27037;52.010;4.446;2022-12-20T17:44:03;10.30;99.90
41294;DHT22;27037;52.010;4.446;2022-12-20T17:46:30;10.20;99.90
41294;DHT22;27037;52.010;4.446;2022-12-20T17:48:56;10.20;99.90
41294;DHT22;27037;52.010;4.446;2022-12-20T17:51:25;10.20;99.90
41294;DHT22;27037;52.010;4.446;2022-12-20T17:53:53;10.20;99.90
41294;DHT22;27037;52.010;4.446;2022-12-20T17:56:22;10.20;99.90
41294;DHT22;27037;52.010;4.446;2022-12-20T17:58:48;10.20;99.90
41294;DHT22;27037;52.010;4.446;2022-12-20T18:03:49;10.10;99.90
41294;DHT22;27037;52.010;4.446;2022-12-20T18:06:15;10.10;99.90